Time;durP1;ratioP1;P1;durP2;ratioP2;P2;SDS_P1;SDS_P2;PMS_P1;PMS_P2;Temp;Humidity;BMP_temperature;BMP_pressure;BME280_temperature;BME280_humidity;BME280_pressure;Samples;Min_cycle;Max_cycle;Signal;HPM_P1;HPM_P2
2021/06/24 00:00:54;;;;;;;24.23;10.05;;;717.00;2227.20;;;;;;4911677;29;20035;-75
2021/06/24 00:03:20;;;;;;;26.05;11.38;;;717.00;2227.20;;;;;;4915591;29;20384;-75
2021/06/24 00:05:46;;;;;;;29.75;11.82;;;717.00;2227.20;;;;;;4911701;29;20114;-75
2021/06/24 00:08:13;;;;;;;22.10;10.05;;;716.90;2227.20;;;;;;4898416;29;20044;-75
2021/06/24 00:10:42;;;;;;;22.92;10.05;;;716.90;2252.80;;;;;;4913524;29;20777;-74
2021/06/24 00:13:08;;;;;;;19.58;9.77;;;716.90;2252.80;;;;;;4915229;29;20079;-75
2021/06/24 00:15:35;;;;;;;22.33;9.77;;;717.00;2252.80;;;;;;4898580;29;20075;-74
2021/06/24 00:18:01;;;;;;;22.92;9.27;;;717.00;2252.80;;;;;;4915356;29;20367;-74
2021/06/24 00:20:27;;;;;;;21.27;9.90;;;717.00;2252.80;;;;;;4915358;29;20032;-75
2021/06/24 00:22:53;;;;;;;22.83;9.55;;;717.00;2278.40;;;;;;4914435;29;20032;-75
2021/06/24 00:25:19;;;;;;;17.40;8.68;;;717.00;2278.40;;;;;;4898217;29;20087;-75
2021/06/24 00:27:44;;;;;;;22.35;9.30;;;717.00;2278.40;;;;;;4913646;29;20043;-75
2021/06/24 00:30:12;;;;;;;16.65;8.68;;;716.90;2278.40;;;;;;4900507;29;20054;-75
2021/06/24 00:32:38;;;;;;;31.35;8.25;;;716.90;2304.00;;;;;;4913640;29;20040;-74
2021/06/24 00:35:06;;;;;;;23.40;9.48;;;716.90;2304.00;;;;;;4909489;29;20107;-74
2021/06/24 00:37:32;;;;;;;19.23;9.13;;;716.90;2304.00;;;;;;4885927;29;20384;-75
2021/06/24 00:39:58;;;;;;;20.98;7.85;;;716.90;2278.40;;;;;;4894521;29;20072;-75
2021/06/24 00:42:26;;;;;;;19.13;7.72;;;716.90;2278.40;;;;;;4898078;29;20493;-75
2021/06/24 00:44:53;;;;;;;19.40;8.07;;;716.90;2278.40;;;;;;4914920;29;20028;-75
2021/06/24 00:47:19;;;;;;;22.02;7.30;;;716.80;2278.40;;;;;;4933204;29;20455;-75
2021/06/24 00:49:45;;;;;;;17.20;8.70;;;716.80;2252.80;;;;;;4937539;29;20028;-75
2021/06/24 00:52:10;;;;;;;23.55;8.05;;;716.80;2252.80;;;;;;4920330;29;20392;-74
2021/06/24 00:54:37;;;;;;;20.73;8.05;;;692.10;2201.60;;;;;;4920402;29;20023;-75
2021/06/24 00:57:04;;;;;;;18.27;7.45;;;692.10;2201.60;;;;;;4937349;29;20051;-74
2021/06/24 00:59:32;;;;;;;23.90;9.82;;;692.10;2227.20;;;;;;4937791;29;20019;-74
2021/06/24 01:01:58;;;;;;;27.38;7.95;;;692.10;2201.60;;;;;;4937057;29;20036;-74
2021/06/24 01:04:24;;;;;;;18.17;8.95;;;691.90;2227.20;;;;;;4937496;29;20039;-75
2021/06/24 01:06:50;;;;;;;19.85;7.40;;;691.90;2201.60;;;;;;4919974;29;20032;-75
2021/06/24 01:09:16;;;;;;;13.27;7.28;;;691.90;2201.60;;;;;;4937355;29;20414;-75
2021/06/24 01:11:42;;;;;;;22.65;8.43;;;691.90;2201.60;;;;;;4910526;29;20028;-75
2021/06/24 01:14:09;;;;;;;20.85;7.15;;;691.90;2201.60;;;;;;4932631;29;20036;-74
2021/06/24 01:16:36;;;;;;;15.52;6.68;;;691.90;2201.60;;;;;;4937413;29;20047;-74
2021/06/24 01:19:02;;;;;;;18.63;7.28;;;691.90;2176.00;;;;;;4936978;29;20027;-74
2021/06/24 01:21:28;;;;;;;22.15;7.80;;;691.80;2176.00;;;;;;4910937;29;20027;-74
2021/06/24 01:23:54;;;;;;;19.92;6.60;;;691.80;2176.00;;;;;;4919792;29;20024;-74
2021/06/24 01:26:21;;;;;;;19.58;7.50;;;691.80;2176.00;;;;;;4937178;29;20096;-74
2021/06/24 01:28:47;;;;;;;26.50;6.57;;;691.70;2201.60;;;;;;4936783;29;20020;-75
2021/06/24 01:31:14;;;;;;;18.98;7.03;;;691.70;2201.60;;;;;;4937150;29;20027;-75
2021/06/24 01:33:40;;;;;;;18.85;7.88;;;691.50;2201.60;;;;;;4936815;29;20024;-74
2021/06/24 01:36:07;;;;;;;15.85;7.47;;;691.50;2227.20;;;;;;4936929;29;20024;-74
2021/06/24 01:38:35;;;;;;;21.25;7.75;;;691.50;2227.20;;;;;;4919431;29;20050;-74
2021/06/24 01:41:01;;;;;;;20.67;8.48;;;691.50;2227.20;;;;;;4936689;29;20107;-74
2021/06/24 01:43:27;;;;;;;21.05;9.18;;;691.40;2252.80;;;;;;4906599;29;20034;-75
2021/06/24 01:45:56;;;;;;;22.95;8.73;;;691.40;2252.80;;;;;;4929868;29;20103;-74
2021/06/24 01:48:24;;;;;;;18.38;7.47;;;691.40;2252.80;;;;;;4905116;29;20032;-74
2021/06/24 01:50:51;;;;;;;21.88;8.07;;;691.30;2278.40;;;;;;4936152;29;20020;-74
2021/06/24 01:53:16;;;;;;;14.02;6.38;;;691.20;2278.40;;;;;;4936727;29;20055;-74
2021/06/24 01:55:42;;;;;;;24.15;6.72;;;691.20;2278.40;;;;;;4909695;29;20058;-74
2021/06/24 01:58:13;;;;;;;28.02;10.98;;;691.20;2304.00;;;;;;4927094;29;20036;-74
2021/06/24 02:00:43;;;;;;;17.00;6.97;;;691.20;2304.00;;;;;;4929891;29;20044;-74
2021/06/24 02:03:11;;;;;;;26.88;7.68;;;691.20;2304.00;;;;;;4926123;29;20067;-74
2021/06/24 02:05:36;;;;;;;20.55;8.55;;;691.20;2278.40;;;;;;4922911;29;20024;-74
2021/06/24 02:08:02;;;;;;;16.92;7.65;;;691.20;2278.40;;;;;;4936143;29;20366;-74
2021/06/24 02:10:28;;;;;;;17.02;7.47;;;691.20;2278.40;;;;;;4919504;29;20035;-74
2021/06/24 02:12:55;;;;;;;17.25;6.93;;;666.50;2278.40;;;;;;4935880;29;20110;-75
2021/06/24 02:15:20;;;;;;;27.48;10.85;;;666.50;2278.40;;;;;;4925240;29;20381;-74
2021/06/24 02:17:46;;;;;;;17.85;7.10;;;666.40;2278.40;;;;;;4920363;29;20026;-74
2021/06/24 02:20:15;;;;;;;18.20;7.25;;;666.30;2278.40;;;;;;4936232;29;20380;-74
2021/06/24 02:22:42;;;;;;;17.42;7.85;;;666.40;2278.40;;;;;;4918849;29;20036;-74
2021/06/24 02:25:09;;;;;;;16.55;6.80;;;666.40;2278.40;;;;;;4935647;29;20031;-74
2021/06/24 02:27:35;;;;;;;20.55;7.43;;;666.40;2278.40;;;;;;4922759;29;20508;-74
2021/06/24 02:30:01;;;;;;;22.42;7.43;;;666.50;2278.40;;;;;;4935718;29;20036;-74
2021/06/24 02:32:26;;;;;;;15.88;6.50;;;666.50;2278.40;;;;;;4918578;29;20044;-74
2021/06/24 02:34:52;;;;;;;17.25;6.68;;;666.50;2252.80;;;;;;4935650;29;20027;-74
2021/06/24 02:37:19;;;;;;;17.60;8.00;;;666.50;2252.80;;;;;;4918531;29;20031;-74
2021/06/24 02:39:45;;;;;;;14.95;6.57;;;666.50;2252.80;;;;;;4935358;29;20027;-74
2021/06/24 02:42:10;;;;;;;25.15;7.63;;;666.50;2252.80;;;;;;4935846;29;20047;-74
2021/06/24 02:44:36;;;;;;;17.42;6.63;;;666.40;2252.80;;;;;;4934813;29;20028;-73
2021/06/24 02:47:02;;;;;;;18.58;6.13;;;666.40;2278.40;;;;;;4932175;29;20038;-75
2021/06/24 02:49:28;;;;;;;24.35;7.80;;;666.50;2278.40;;;;;;4935822;29;20034;-74
2021/06/24 02:51:54;;;;;;;16.40;7.05;;;666.30;2278.40;;;;;;4935343;29;20513;-74
2021/06/24 02:54:20;;;;;;;15.40;6.80;;;666.40;2278.40;;;;;;4935438;29;20548;-74
2021/06/24 02:56:46;;;;;;;19.23;6.47;;;666.30;2278.40;;;;;;4931844;29;20024;-75
2021/06/24 02:59:12;;;;;;;18.80;6.30;;;666.30;2278.40;;;;;;4925417;29;20035;-74
2021/06/24 03:01:39;;;;;;;21.95;5.80;;;666.50;2278.40;;;;;;4934958;29;20421;-74
2021/06/24 03:04:08;;;;;;;16.88;7.30;;;666.30;2278.40;;;;;;4935507;29;20043;-74
2021/06/24 03:06:35;;;;;;;14.00;6.32;;;666.30;2278.40;;;;;;4914946;29;20493;-74
2021/06/24 03:09:03;;;;;;;14.88;6.43;;;666.20;2278.40;;;;;;4923936;29;20493;-74
2021/06/24 03:11:29;;;;;;;20.58;7.25;;;666.20;2278.40;;;;;;4917862;29;20075;-74
2021/06/24 03:13:55;;;;;;;18.38;6.72;;;666.20;2278.40;;;;;;4924090;29;20430;-74
2021/06/24 03:16:21;;;;;;;16.40;7.60;;;666.10;2304.00;;;;;;4908506;29;20055;-74
2021/06/24 03:18:49;;;;;;;13.98;7.68;;;666.20;2304.00;;;;;;4898856;29;20032;-74
2021/06/24 03:21:15;;;;;;;17.88;8.10;;;666.20;2329.60;;;;;;4913294;29;20032;-73
2021/06/24 03:23:41;;;;;;;23.13;7.43;;;666.10;2329.60;;;;;;4895580;29;20047;-74
2021/06/24 03:26:07;;;;;;;18.52;7.82;;;666.10;2329.60;;;;;;4898977;29;20040;-74
2021/06/24 03:28:33;;;;;;;19.60;9.02;;;666.00;2329.60;;;;;;4915675;29;20083;-73
2021/06/24 03:30:59;;;;;;;19.75;7.35;;;665.90;2329.60;;;;;;4886556;29;20063;-74
2021/06/24 03:33:25;;;;;;;18.00;8.02;;;665.90;2329.60;;;;;;4897591;29;20557;-74
2021/06/24 03:35:51;;;;;;;15.18;7.55;;;665.80;2329.60;;;;;;4894380;29;20052;-73
2021/06/24 03:38:18;;;;;;;16.33;7.38;;;665.80;2329.60;;;;;;4898669;29;20052;-74
2021/06/24 03:40:44;;;;;;;16.77;8.05;;;665.90;2329.60;;;;;;4913128;29;20092;-72
2021/06/24 03:43:09;;;;;;;19.08;8.30;;;666.10;2329.60;;;;;;4898618;29;20036;-72
2021/06/24 03:45:37;;;;;;;22.23;7.78;;;666.20;2304.00;;;;;;4919688;29;20027;-73
2021/06/24 03:48:04;;;;;;;19.98;7.43;;;666.20;2278.40;;;;;;4917564;29;20031;-72
2021/06/24 03:50:30;;;;;;;17.92;7.22;;;666.30;2304.00;;;;;;4921133;29;20028;-72
2021/06/24 03:52:56;;;;;;;18.67;7.18;;;666.30;2278.40;;;;;;4926019;29;20028;-72
2021/06/24 03:55:35;;;;;;;23.70;8.10;;;666.30;2278.40;;;;;;4901546;29;20028;-73
2021/06/24 03:58:03;;;;;;;14.57;8.07;;;666.50;2278.40;;;;;;4915489;29;20028;-72
2021/06/24 04:00:28;;;;;;;21.63;8.20;;;666.50;2278.40;;;;;;4915684;29;20074;-73
2021/06/24 04:02:54;;;;;;;20.08;8.65;;;691.20;2278.40;;;;;;4898341;29;20028;-72
2021/06/24 04:05:20;;;;;;;31.00;10.25;;;691.20;2278.40;;;;;;4915705;29;20028;-72
2021/06/24 04:07:46;;;;;;;23.05;9.18;;;691.30;2278.40;;;;;;4910855;29;20037;-74
2021/06/24 04:10:12;;;;;;;21.85;9.52;;;691.50;2278.40;;;;;;4902976;29;20036;-73
2021/06/24 04:12:39;;;;;;;17.48;8.30;;;691.60;2278.40;;;;;;4910776;29;20111;-73
2021/06/24 04:15:06;;;;;;;24.05;9.13;;;691.60;2278.40;;;;;;4914952;29;20032;-73
2021/06/24 04:17:31;;;;;;;28.45;11.18;;;691.70;2278.40;;;;;;4914451;29;20032;-73
2021/06/24 04:19:57;;;;;;;19.27;9.68;;;691.70;2278.40;;;;;;4897171;29;20039;-73
2021/06/24 04:22:24;;;;;;;26.58;12.20;;;691.70;2278.40;;;;;;4898645;29;20028;-73
2021/06/24 04:24:50;;;;;;;28.63;10.77;;;691.60;2304.00;;;;;;4889731;29;20043;-73
2021/06/24 04:27:16;;;;;;;28.50;11.27;;;691.60;2304.00;;;;;;4918867;29;20032;-73
2021/06/24 04:29:42;;;;;;;20.10;10.77;;;691.70;2304.00;;;;;;4915194;29;20898;-73
2021/06/24 04:32:08;;;;;;;24.92;9.70;;;691.70;2304.00;;;;;;4901952;29;20032;-73
2021/06/24 04:34:34;;;;;;;26.98;11.52;;;691.70;2304.00;;;;;;4916836;29;20079;-73
2021/06/24 04:37:00;;;;;;;22.98;11.80;;;691.90;2278.40;;;;;;4912079;28;20792;-73
2021/06/24 04:39:25;;;;;;;20.98;10.82;;;691.90;2278.40;;;;;;4901460;29;20051;-73
2021/06/24 04:41:51;;;;;;;24.33;10.20;;;691.90;2278.40;;;;;;4901759;29;20028;-73
2021/06/24 04:44:18;;;;;;;26.30;11.73;;;692.00;2278.40;;;;;;4901465;29;20477;-73
2021/06/24 04:46:44;;;;;;;33.72;12.65;;;716.90;2278.40;;;;;;4920647;29;20032;-73
2021/06/24 04:49:10;;;;;;;34.35;10.73;;;717.00;2278.40;;;;;;4902291;29;20032;-73
2021/06/24 04:51:36;;;;;;;33.63;11.65;;;717.00;2278.40;;;;;;4901045;29;20482;-73
2021/06/24 04:54:02;;;;;;;27.48;13.05;;;717.30;2252.80;;;;;;4900186;29;20032;-73
2021/06/24 04:56:28;;;;;;;25.42;10.55;;;717.50;2227.20;;;;;;4901576;29;20088;-73
2021/06/24 04:58:54;;;;;;;28.73;11.20;;;717.70;2227.20;;;;;;4917419;29;20028;-73
2021/06/24 05:01:20;;;;;;;19.52;10.93;;;742.40;2227.20;;;;;;4902901;29;20024;-73
2021/06/24 05:03:46;;;;;;;23.08;10.80;;;742.40;2227.20;;;;;;4918317;29;20042;-73
2021/06/24 05:06:12;;;;;;;25.77;10.13;;;742.60;2227.20;;;;;;4899646;29;20072;-73
2021/06/24 05:08:38;;;;;;;27.63;11.73;;;742.70;2227.20;;;;;;4918360;29;20494;-73
2021/06/24 05:11:05;;;;;;;26.00;10.13;;;742.90;2176.00;;;;;;4905490;29;20119;-73
2021/06/24 05:13:31;;;;;;;21.55;9.30;;;743.10;2150.40;;;;;;4908114;29;20475;-73
2021/06/24 05:15:57;;;;;;;23.48;11.57;;;768.00;2150.40;;;;;;4912616;29;20043;-74
2021/06/24 05:18:24;;;;;;;24.40;11.32;;;768.00;2150.40;;;;;;4909977;29;20100;-74
2021/06/24 05:20:49;;;;;;;29.50;11.88;;;768.10;2124.80;;;;;;4912087;29;20529;-75
2021/06/24 05:23:17;;;;;;;22.63;10.90;;;768.20;2124.80;;;;;;4900773;29;20044;-73
2021/06/24 05:25:44;;;;;;;24.80;10.38;;;768.40;2124.80;;;;;;4901025;29;20035;-75
2021/06/24 05:28:10;;;;;;;27.73;11.20;;;768.40;2124.80;;;;;;4912702;29;20020;-75
2021/06/24 05:30:36;;;;;;;25.88;10.63;;;768.70;2099.20;;;;;;4917328;29;20083;-75
2021/06/24 05:33:04;;;;;;;28.05;11.77;;;768.50;2124.80;;;;;;4917090;29;20051;-74
2021/06/24 05:35:30;;;;;;;18.60;10.77;;;768.50;2124.80;;;;;;4900522;29;20222;-74
2021/06/24 05:37:57;;;;;;;21.98;10.50;;;768.70;2099.20;;;;;;4917167;29;20053;-75
2021/06/24 05:40:23;;;;;;;21.88;11.02;;;768.90;2099.20;;;;;;4900171;29;20123;-75
2021/06/24 05:42:49;;;;;;;35.10;12.88;;;768.90;2099.20;;;;;;4917686;29;20024;-75
2021/06/24 05:45:16;;;;;;;28.23;10.50;;;793.60;2150.40;;;;;;4919125;29;20028;-75
2021/06/24 05:47:42;;;;;;;22.45;10.10;;;793.80;2124.80;;;;;;4936828;29;20472;-75
2021/06/24 05:50:08;;;;;;;24.52;11.73;;;794.10;2099.20;;;;;;4923046;29;20039;-74
2021/06/24 05:52:37;;;;;;;27.75;12.98;;;794.30;2099.20;;;;;;4904553;29;20520;-75
2021/06/24 05:55:04;;;;;;;19.60;11.98;;;794.20;2124.80;;;;;;4929320;29;20031;-75
2021/06/24 05:57:29;;;;;;;24.65;12.73;;;819.20;2099.20;;;;;;4936703;29;20015;-75
2021/06/24 05:59:55;;;;;;;31.75;13.38;;;819.30;2099.20;;;;;;4936422;29;20035;-74
2021/06/24 06:02:21;;;;;;;23.52;12.43;;;819.70;2073.60;;;;;;4915746;29;20079;-75
2021/06/24 06:04:47;;;;;;;31.33;12.35;;;819.80;2073.60;;;;;;4908532;29;20028;-75
2021/06/24 06:07:12;;;;;;;25.88;13.90;;;819.70;2099.20;;;;;;4915975;29;20040;-75
2021/06/24 06:09:38;;;;;;;24.10;12.77;;;819.70;2073.60;;;;;;4912402;29;20482;-75
2021/06/24 06:12:05;;;;;;;24.15;12.75;;;819.80;2099.20;;;;;;4915200;29;20035;-75
2021/06/24 06:14:31;;;;;;;28.45;13.20;;;820.10;2073.60;;;;;;4899414;29;20509;-75
2021/06/24 06:16:58;;;;;;;23.50;12.95;;;845.00;2073.60;;;;;;4911618;29;20065;-77
2021/06/24 06:19:23;;;;;;;21.70;14.40;;;845.10;2048.00;;;;;;4912644;29;20107;-76
2021/06/24 06:21:49;;;;;;;25.52;14.85;;;845.30;2048.00;;;;;;4916934;29;20056;-76
2021/06/24 06:24:15;;;;;;;27.58;14.23;;;845.50;2048.00;;;;;;4897483;29;20487;-77
2021/06/24 06:26:41;;;;;;;29.67;14.45;;;845.50;2048.00;;;;;;4916218;29;20036;-77
2021/06/24 06:29:06;;;;;;;30.20;14.10;;;870.40;2022.40;;;;;;4913325;29;20032;-77
2021/06/24 06:31:35;;;;;;;33.40;13.82;;;870.60;1996.80;;;;;;4895954;29;20556;-77
2021/06/24 06:34:01;;;;;;;30.83;15.55;;;870.90;1996.80;;;;;;4914029;29;20103;-77
2021/06/24 06:36:27;;;;;;;29.17;13.68;;;871.10;1996.80;;;;;;4896402;29;20111;-75
2021/06/24 06:38:53;;;;;;;23.42;13.13;;;871.20;1971.20;;;;;;4891494;29;20147;-73
2021/06/24 06:41:19;;;;;;;31.85;13.05;;;896.10;1945.60;;;;;;4906833;29;20036;-73
2021/06/24 06:43:45;;;;;;;28.30;14.52;;;896.30;1945.60;;;;;;4908700;29;20032;-73
2021/06/24 06:46:11;;;;;;;32.25;15.27;;;896.20;1945.60;;;;;;4911987;29;20035;-73
2021/06/24 06:48:36;;;;;;;30.48;14.73;;;896.60;1920.00;;;;;;4894160;29;20040;-73
2021/06/24 06:51:02;;;;;;;25.08;12.07;;;896.60;1894.40;;;;;;4906604;29;20029;-73
2021/06/24 06:53:28;;;;;;;28.80;14.00;;;896.60;1894.40;;;;;;4909116;29;20040;-73
2021/06/24 06:55:54;;;;;;;26.70;13.10;;;896.60;1894.40;;;;;;4903548;29;20107;-73
2021/06/24 06:58:20;;;;;;;26.70;14.02;;;896.50;1920.00;;;;;;4893940;29;20084;-73
2021/06/24 07:00:46;;;;;;;21.02;13.55;;;896.40;1920.00;;;;;;4896999;29;20032;-73
2021/06/24 07:03:11;;;;;;;21.77;12.43;;;922.00;1894.40;;;;;;4908584;29;20024;-73
2021/06/24 07:05:37;;;;;;;26.00;14.57;;;922.30;1868.80;;;;;;4902109;29;20020;-73
2021/06/24 07:08:04;;;;;;;26.08;13.63;;;947.40;1817.60;;;;;;4923219;29;20398;-74
2021/06/24 07:10:30;;;;;;;21.52;13.20;;;947.70;1792.00;;;;;;4913188;29;20068;-73
2021/06/24 07:12:55;;;;;;;26.88;12.60;;;947.40;1792.00;;;;;;4903863;29;20024;-73
2021/06/24 07:15:22;;;;;;;28.25;13.05;;;947.20;1817.60;;;;;;4889194;29;21734;-73
2021/06/24 07:17:47;;;;;;;29.25;13.32;;;922.30;1792.00;;;;;;4913972;29;20020;-74
2021/06/24 07:20:14;;;;;;;26.75;13.27;;;921.80;1817.60;;;;;;4905448;29;20468;-73
2021/06/24 07:22:40;;;;;;;31.70;16.10;;;921.60;1843.20;;;;;;4898059;29;20040;-73
2021/06/24 07:25:08;;;;;;;27.85;15.95;;;896.50;1843.20;;;;;;4911237;29;20093;-73
2021/06/24 07:27:34;;;;;;;24.73;13.02;;;896.40;1843.20;;;;;;4910485;29;20036;-72
2021/06/24 07:30:00;;;;;;;25.27;11.57;;;896.10;1868.80;;;;;;4906350;29;20020;-73
2021/06/24 07:32:26;;;;;;;25.25;12.85;;;871.30;1894.40;;;;;;4908271;29;20051;-73
2021/06/24 07:34:51;;;;;;;30.65;14.10;;;896.40;1843.20;;;;;;4906664;29;20092;-72
2021/06/24 07:37:17;;;;;;;29.30;12.95;;;896.60;1843.20;;;;;;4906231;29;20028;-73
2021/06/24 07:39:43;;;;;;;28.42;13.13;;;922.00;1817.60;;;;;;4907859;29;20457;-73
2021/06/24 07:42:09;;;;;;;23.63;11.80;;;921.90;1817.60;;;;;;4900206;29;20119;-73
2021/06/24 07:44:35;;;;;;;30.67;12.55;;;922.00;1817.60;;;;;;4909473;29;20021;-72
2021/06/24 07:47:01;;;;;;;30.90;13.15;;;947.20;1792.00;;;;;;4902881;29;20099;-72
2021/06/24 07:49:26;;;;;;;24.30;13.35;;;947.80;1740.80;;;;;;4905194;29;20024;-73
2021/06/24 07:51:52;;;;;;;33.75;13.82;;;973.10;1715.20;;;;;;4906832;29;20066;-73
2021/06/24 07:54:18;;;;;;;31.17;13.43;;;973.20;1689.60;;;;;;4909330;29;20493;-73
2021/06/24 07:56:43;;;;;;;27.75;12.77;;;973.20;1715.20;;;;;;4905213;29;20020;-76
2021/06/24 07:59:12;;;;;;;30.35;13.07;;;948.10;1715.20;;;;;;4910315;29;20031;-73
2021/06/24 08:01:38;;;;;;;17.30;10.57;;;947.70;1715.20;;;;;;4912937;29;20068;-73
2021/06/24 08:04:06;;;;;;;28.55;12.10;;;947.80;1689.60;;;;;;4909554;29;20037;-73
2021/06/24 08:06:32;;;;;;;22.92;11.43;;;973.10;1689.60;;;;;;4907244;29;20447;-73
2021/06/24 08:08:58;;;;;;;28.08;12.18;;;973.30;1664.00;;;;;;4908498;29;20528;-73
2021/06/24 08:11:24;;;;;;;29.08;12.25;;;973.30;1638.40;;;;;;4916086;29;20055;-73
2021/06/24 08:13:50;;;;;;;25.75;10.50;;;973.50;1612.80;;;;;;4914188;29;20060;-75
2021/06/24 08:16:16;;;;;;;22.05;10.73;;;972.90;1664.00;;;;;;4908649;29;20028;-75
2021/06/24 08:18:42;;;;;;;24.75;11.18;;;948.00;1638.40;;;;;;4913499;29;20012;-74
2021/06/24 08:21:09;;;;;;;26.33;11.00;;;972.90;1664.00;;;;;;4911881;29;20079;-74
2021/06/24 08:23:37;;;;;;;23.17;10.82;;;972.80;1664.00;;;;;;4913933;29;20028;-75
2021/06/24 08:26:03;;;;;;;18.83;11.07;;;972.80;1664.00;;;;;;4890044;29;20083;-74
2021/06/24 08:28:30;;;;;;;25.02;10.65;;;973.30;1638.40;;;;;;4913802;29;20552;-74
2021/06/24 08:30:56;;;;;;;26.23;10.90;;;973.30;1638.40;;;;;;4909266;29;20406;-75
2021/06/24 08:33:22;;;;;;;34.10;12.10;;;998.40;1612.80;;;;;;4892553;29;20388;-75
2021/06/24 08:35:48;;;;;;;22.67;11.52;;;998.80;1612.80;;;;;;4914444;29;20032;-74
2021/06/24 08:38:15;;;;;;;30.88;12.73;;;998.90;1561.60;;;;;;4910206;29;20056;-73
2021/06/24 08:40:41;;;;;;;26.30;12.45;;;999.10;1561.60;;;;;;4911670;29;20056;-73
2021/06/24 08:43:08;;;;;;;25.52;13.27;;;999.20;1587.20;;;;;;4914031;29;20482;-75
2021/06/24 08:45:34;;;;;;;29.58;12.18;;;1024.00;1587.20;;;;;;4896851;29;20430;-73
2021/06/24 08:48:01;;;;;;;22.38;10.50;;;999.30;1561.60;;;;;;4908401;29;20102;-72
2021/06/24 08:50:28;;;;;;;26.00;11.55;;;998.70;1612.80;;;;;;4916569;29;20032;-72
2021/06/24 08:52:55;;;;;;;20.65;11.00;;;998.80;1612.80;;;;;;4935862;29;20035;-71
2021/06/24 08:55:21;;;;;;;21.45;10.90;;;998.70;1587.20;;;;;;4922300;29;20028;-72
2021/06/24 08:57:48;;;;;;;21.88;10.88;;;999.00;1561.60;;;;;;4917415;29;20016;-73
2021/06/24 09:00:14;;;;;;;25.92;10.68;;;1024.10;1510.40;;;;;;4917002;29;20028;-72
2021/06/24 09:02:42;;;;;;;26.05;11.38;;;1024.40;1510.40;;;;;;4904716;29;20064;-72
2021/06/24 09:05:10;;;;;;;22.75;11.30;;;1024.90;1433.60;;;;;;4888314;29;20430;-73
2021/06/24 09:07:55;;;;;;;28.05;12.27;;;1024.90;1459.20;;;;;;4907605;29;20036;-73
2021/06/24 09:10:23;;;;;;;37.95;12.32;;;1050.40;1433.60;;;;;;4908164;29;20126;-73
2021/06/24 09:13:02;;;;;;;25.92;11.40;;;1050.20;1433.60;;;;;;4915252;29;20124;-73
2021/06/24 09:15:38;;;;;;;29.70;12.52;;;1050.20;1433.60;;;;;;4902059;29;20032;-73
2021/06/24 09:18:20;;;;;;;35.65;14.85;;;1050.40;1433.60;;;;;;4910850;29;20111;-72
2021/06/24 09:20:47;;;;;;;23.33;12.38;;;1075.30;1433.60;;;;;;4909914;29;20035;-74
2021/06/24 09:23:17;;;;;;;25.38;12.75;;;1075.50;1433.60;;;;;;4893849;29;20039;-75
2021/06/24 09:25:50;;;;;;;29.15;12.25;;;1075.50;1408.00;;;;;;4905933;29;20051;-74
2021/06/24 09:28:16;;;;;;;21.60;12.20;;;1075.20;1408.00;;;;;;4908842;29;20086;-75
2021/06/24 09:30:45;;;;;;;25.88;12.55;;;1050.20;1408.00;;;;;;4902310;29;20024;-75
2021/06/24 09:33:17;;;;;;;27.33;12.55;;;1024.90;1433.60;;;;;;4888854;29;20127;-74
2021/06/24 09:35:53;;;;;;;24.08;12.20;;;1024.50;1459.20;;;;;;4890344;29;20020;-74
2021/06/24 09:38:19;;;;;;;26.65;11.57;;;1024.40;1459.20;;;;;;4890421;29;20048;-75
2021/06/24 09:40:48;;;;;;;21.02;13.60;;;1049.60;1459.20;;;;;;4906003;29;20441;-75
2021/06/24 09:43:28;;;;;;;17.58;11.77;;;1050.30;1433.60;;;;;;4907190;29;20107;-75
2021/06/24 09:46:18;;;;;;;26.60;12.50;;;1050.30;1433.60;;;;;;4907342;29;20027;-75
2021/06/24 09:48:51;;;;;;;22.15;12.88;;;1075.20;1408.00;;;;;;4887246;29;20037;-76
2021/06/24 09:51:33;;;;;;;23.58;12.35;;;1075.80;1382.40;;;;;;4907992;29;20029;-75
2021/06/24 09:54:00;;;;;;;21.02;12.10;;;1075.90;1382.40;;;;;;4910638;29;20107;-74
2021/06/24 09:56:33;;;;;;;29.17;12.80;;;1075.30;1382.40;;;;;;4907386;29;20036;-74
2021/06/24 09:59:07;;;;;;;28.05;12.25;;;1075.70;1331.20;;;;;;4908080;29;20108;-74
2021/06/24 10:01:36;;;;;;;30.77;14.40;;;1076.10;1356.80;;;;;;4907182;29;20035;-75
2021/06/24 10:04:20;;;;;;;29.58;13.23;;;1076.10;1356.80;;;;;;4904793;29;20020;-75
2021/06/24 10:06:51;;;;;;;23.98;13.07;;;1100.90;1356.80;;;;;;4906742;29;20422;-76
2021/06/24 10:09:17;;;;;;;32.70;14.23;;;1100.80;1382.40;;;;;;4890998;29;20039;-76
2021/06/24 10:11:46;;;;;;;23.67;12.07;;;1101.40;1331.20;;;;;;4904995;29;20547;-74
2021/06/24 10:14:15;;;;;;;25.80;12.95;;;1101.30;1331.20;;;;;;4909669;29;20040;-74
2021/06/24 10:16:45;;;;;;;26.77;13.73;;;1101.30;1356.80;;;;;;4905089;29;20024;-74
2021/06/24 10:19:14;;;;;;;29.60;13.98;;;1076.00;1356.80;;;;;;4906855;29;20023;-73
2021/06/24 10:21:40;;;;;;;29.02;14.98;;;1076.10;1356.80;;;;;;4907742;29;20032;-73
2021/06/24 10:24:19;;;;;;;33.13;13.45;;;1101.30;1356.80;;;;;;4905107;29;20032;-74
2021/06/24 10:26:51;;;;;;;35.53;13.15;;;1100.80;1382.40;;;;;;4907169;29;20435;-72
2021/06/24 10:29:19;;;;;;;23.73;13.18;;;1101.40;1331.20;;;;;;4903843;29;20790;-74
2021/06/24 10:31:52;;;;;;;31.30;14.13;;;1101.50;1305.60;;;;;;4907992;29;20020;-76
2021/06/24 10:34:20;;;;;;;26.17;13.17;;;1126.40;1331.20;;;;;;4901980;29;20025;-76
2021/06/24 10:37:09;;;;;;;22.70;13.48;;;1126.90;1305.60;;;;;;4884804;29;20067;-75
2021/06/24 10:39:36;;;;;;;25.02;12.68;;;1126.90;1305.60;;;;;;4904713;29;20052;-75
2021/06/24 10:42:08;;;;;;;29.13;14.48;;;1126.50;1305.60;;;;;;4893067;29;20044;-73
2021/06/24 10:44:53;;;;;;;21.33;11.65;;;1126.40;1305.60;;;;;;4908299;29;20541;-73
2021/06/24 10:47:27;;;;;;;24.85;12.70;;;1101.50;1280.00;;;;;;4911262;29;20032;-73
2021/06/24 10:49:53;;;;;;;32.92;14.20;;;1101.40;1280.00;;;;;;4890758;29;20406;-74
2021/06/24 10:52:27;;;;;;;25.33;13.77;;;1101.70;1228.80;;;;;;4909162;29;20031;-73
2021/06/24 10:54:57;;;;;;;22.10;13.30;;;1126.40;1228.80;;;;;;4908257;29;20027;-74
2021/06/24 10:57:37;;;;;;;20.98;11.50;;;1126.90;1228.80;;;;;;4893009;29;20479;-74
2021/06/24 11:00:33;;;;;;;29.50;14.75;;;1127.20;1228.80;;;;;;4904730;29;20032;-74
2021/06/24 11:03:01;;;;;;;28.13;12.25;;;1152.10;1203.20;;;;;;4905543;29;20109;-74
2021/06/24 11:05:38;;;;;;;19.30;11.45;;;1152.30;1152.00;;;;;;4904258;29;20028;-73
2021/06/24 11:08:17;;;;;;;23.00;13.77;;;1127.20;1203.20;;;;;;4891582;29;20494;-72
2021/06/24 11:10:55;;;;;;;25.88;11.98;;;1152.10;1203.20;;;;;;4898869;29;20092;-73
2021/06/24 11:13:36;;;;;;;21.25;13.15;;;1152.30;1177.60;;;;;;4904252;29;20060;-73
2021/06/24 11:16:15;;;;;;;25.23;12.80;;;1127.30;1203.20;;;;;;4891849;29;20044;-73
2021/06/24 11:18:40;;;;;;;23.95;12.40;;;1152.50;1177.60;;;;;;4888374;29;20527;-74
2021/06/24 11:21:30;;;;;;;22.20;12.80;;;1152.70;1126.40;;;;;;4890539;29;20047;-74
2021/06/24 11:24:00;;;;;;;29.10;13.82;;;1152.70;1152.00;;;;;;4894360;29;20036;-74
2021/06/24 11:26:26;;;;;;;30.30;13.75;;;1152.60;1177.60;;;;;;4895452;29;20021;-74
2021/06/24 11:37:10;;;;;;;26.05;12.25;;;1178.20;1100.80;;;;;;4880282;29;20032;-76
2021/06/24 11:39:45;;;;;;;25.50;12.40;;;1177.80;1152.00;;;;;;4908478;29;20044;-76
2021/06/24 11:42:16;;;;;;;22.98;11.68;;;1177.80;1126.40;;;;;;4888373;29;20036;-77
2021/06/24 11:44:47;;;;;;;20.30;11.20;;;1178.10;1100.80;;;;;;4892966;29;20028;-77
2021/06/24 11:47:22;;;;;;;25.98;13.07;;;1178.10;1100.80;;;;;;4907747;29;20033;-76
2021/06/24 12:01:57;;;;;;;24.52;12.63;;;1203.70;1075.20;;;;;;4904411;29;20036;-76
2021/06/24 12:04:31;;;;;;;18.20;11.40;;;1203.50;1049.60;;;;;;4905541;29;20036;-76
2021/06/24 12:06:59;;;;;;;27.33;10.82;;;1152.50;1100.80;;;;;;4908729;29;20446;-77
2021/06/24 12:09:39;;;;;;;23.98;11.80;;;1177.80;1049.60;;;;;;4886440;29;20055;-77
2021/06/24 12:12:06;;;;;;;23.45;12.05;;;1177.90;1024.00;;;;;;4890139;29;20494;-77
2021/06/24 12:14:34;;;;;;;20.50;11.23;;;1178.30;1024.00;;;;;;4909447;29;20110;-77
2021/06/24 12:17:03;;;;;;;23.52;10.98;;;1178.30;998.40;;;;;;4908004;29;20021;-76
2021/06/24 12:19:42;;;;;;;22.50;11.13;;;1178.40;1024.00;;;;;;4890329;29;20028;-77
2021/06/24 12:22:08;;;;;;;19.55;10.88;;;1203.90;1024.00;;;;;;4888031;29;20840;-77
2021/06/24 12:24:35;;;;;;;21.25;11.05;;;1203.50;1024.00;;;;;;4907595;29;20056;-76